createdAt,value
2022-10-09T00:00:34.495Z,9.47
2022-10-09T00:03:02.960Z,9.47
2022-10-09T00:05:31.115Z,9.51
2022-10-09T00:07:58.760Z,9.51
2022-10-09T00:10:28.004Z,9.46
2022-10-09T00:12:55.779Z,9.44
2022-10-09T00:15:23.798Z,9.43
2022-10-09T00:17:51.566Z,9.39
2022-10-09T00:20:19.218Z,9.35
2022-10-09T00:22:47.045Z,9.31
2022-10-09T00:25:15.130Z,9.26
2022-10-09T00:27:43.983Z,9.23
2022-10-09T00:30:12.317Z,9.19
2022-10-09T00:32:39.929Z,9.15
2022-10-09T00:35:08.445Z,9.14
2022-10-09T00:37:36.020Z,9.11
2022-10-09T00:40:03.688Z,9.08
2022-10-09T00:42:31.234Z,9.06
2022-10-09T00:45:02.208Z,9.02
2022-10-09T00:47:33.453Z,8.98
2022-10-09T00:50:06.426Z,8.96
2022-10-09T00:52:34.605Z,8.90
2022-10-09T00:55:03.648Z,8.85
2022-10-09T00:57:32.471Z,8.82
2022-10-09T01:00:04.152Z,8.79
2022-10-09T01:02:31.779Z,8.72
2022-10-09T01:04:59.299Z,8.71
2022-10-09T01:07:35.805Z,8.69
2022-10-09T01:10:12.683Z,8.66
2022-10-09T01:12:49.364Z,8.60
2022-10-09T01:15:23.136Z,8.60
2022-10-09T01:18:01.233Z,8.59
2022-10-09T01:20:38.904Z,8.54
2022-10-09T01:23:35.082Z,8.49
2022-10-09T01:26:21.141Z,8.46
2022-10-09T01:28:53.629Z,8.46
2022-10-09T01:31:23.582Z,8.44
2022-10-09T01:33:52.287Z,8.40
2022-10-09T01:36:21.688Z,8.41
2022-10-09T01:38:49.607Z,8.40
2022-10-09T01:41:18.071Z,8.35
2022-10-09T01:43:45.616Z,8.37
2022-10-09T01:46:23.096Z,8.33
2022-10-09T01:48:59.305Z,8.28
2022-10-09T01:51:30.936Z,8.27
2022-10-09T01:54:03.965Z,8.25
2022-10-09T01:56:36.606Z,8.27
2022-10-09T01:59:13.479Z,8.28
2022-10-09T02:01:46.028Z,8.26
2022-10-09T02:04:16.051Z,8.25
2022-10-09T02:06:45.061Z,8.20
2022-10-09T02:09:16.367Z,8.17
2022-10-09T02:11:48.977Z,8.16
2022-10-09T02:14:16.614Z,8.13
2022-10-09T02:16:47.790Z,8.13
2022-10-09T02:19:20.810Z,8.12
2022-10-09T02:21:54.522Z,8.09
2022-10-09T02:24:24.307Z,8.06
2022-10-09T02:26:53.973Z,8.05
2022-10-09T02:29:22.236Z,8.02
2022-10-09T02:31:51.275Z,8.01
2022-10-09T02:34:20.598Z,7.95
2022-10-09T02:36:49.034Z,7.91
2022-10-09T02:39:16.562Z,7.92
2022-10-09T02:41:44.136Z,7.91
2022-10-09T02:44:11.667Z,7.88
2022-10-09T02:46:39.245Z,7.84
2022-10-09T02:49:08.513Z,7.83
2022-10-09T02:51:36.156Z,7.79
2022-10-09T02:54:03.991Z,7.76
2022-10-09T02:56:33.623Z,7.72
2022-10-09T02:59:04.436Z,7.69
2022-10-09T03:01:32.049Z,7.69
2022-10-09T03:03:59.680Z,7.65
2022-10-09T03:06:29.808Z,7.64
2022-10-09T03:08:57.576Z,7.56
2022-10-09T03:11:26.349Z,7.57
2022-10-09T03:13:55.253Z,7.52
2022-10-09T03:16:25.089Z,7.53
2022-10-09T03:18:53.332Z,7.49
2022-10-09T03:21:22.678Z,7.48
2022-10-09T03:23:53.189Z,7.43
2022-10-09T03:26:22.709Z,7.40
2022-10-09T03:28:52.049Z,7.38
2022-10-09T03:31:46.845Z,7.37
2022-10-09T03:34:11.115Z,7.38
2022-10-09T03:36:38.692Z,7.34
2022-10-09T03:39:07.743Z,7.32
2022-10-09T03:41:35.330Z,7.33
2022-10-09T03:44:02.877Z,7.32
2022-10-09T03:46:30.407Z,7.33
2022-10-09T03:48:58.060Z,7.30
2022-10-09T03:51:25.583Z,7.28
2022-10-09T03:53:53.147Z,7.23
2022-10-09T03:56:22.012Z,7.19
2022-10-09T03:58:49.537Z,7.14
2022-10-09T04:01:17.149Z,7.09
2022-10-09T04:03:44.709Z,7.08
2022-10-09T04:06:12.633Z,7.05
2022-10-09T04:08:40.236Z,6.97
2022-10-09T04:11:07.881Z,6.92
2022-10-09T04:13:36.770Z,6.88
2022-10-09T04:16:04.354Z,6.85
2022-10-09T04:18:31.974Z,6.82
2022-10-09T04:20:59.490Z,6.82
2022-10-09T04:23:28.185Z,6.82
2022-10-09T04:25:56.319Z,6.79
2022-10-09T04:28:24.488Z,6.78
2022-10-09T04:30:53.598Z,6.76
2022-10-09T04:33:21.317Z,6.75
2022-10-09T04:35:51.770Z,6.72
2022-10-09T04:38:20.118Z,6.73
2022-10-09T04:40:56.647Z,6.71
2022-10-09T04:43:24.417Z,6.68
2022-10-09T04:45:53.498Z,6.67
2022-10-09T04:48:21.327Z,6.66
2022-10-09T04:50:48.857Z,6.66
2022-10-09T04:53:16.802Z,6.63
2022-10-09T04:55:45.432Z,6.60
2022-10-09T04:58:15.888Z,6.62
2022-10-09T05:00:45.194Z,6.64
2022-10-09T05:03:14.291Z,6.65
2022-10-09T05:05:41.807Z,6.67
2022-10-09T05:08:09.331Z,6.68
2022-10-09T05:10:36.920Z,6.71
2022-10-09T05:13:04.511Z,6.73
2022-10-09T05:15:32.611Z,6.75
2022-10-09T05:18:00.128Z,6.71
2022-10-09T05:20:29.243Z,6.66
2022-10-09T05:22:56.756Z,6.60
2022-10-09T05:25:24.265Z,6.54
2022-10-09T05:27:51.786Z,6.56
2022-10-09T05:30:19.388Z,6.60
2022-10-09T05:32:47.208Z,6.61
2022-10-09T05:35:15.069Z,6.66
2022-10-09T05:37:46.424Z,6.65
2022-10-09T05:40:13.950Z,6.66
2022-10-09T05:42:41.487Z,6.70
2022-10-09T05:45:11.270Z,6.67
2022-10-09T05:47:41.573Z,6.59
2022-10-09T05:50:10.039Z,6.52
2022-10-09T05:52:39.883Z,6.52
2022-10-09T05:55:09.282Z,6.60
2022-10-09T05:57:36.937Z,6.62
2022-10-09T06:00:05.504Z,6.58
2022-10-09T06:02:39.887Z,6.58
2022-10-09T06:05:08.149Z,6.52
2022-10-09T06:07:35.676Z,6.50
2022-10-09T06:10:03.237Z,6.47
2022-10-09T06:12:32.112Z,6.47
2022-10-09T06:14:59.675Z,6.43
2022-10-09T06:17:27.200Z,6.39
2022-10-09T06:19:54.859Z,6.45
2022-10-09T06:22:22.377Z,6.42
2022-10-09T06:24:49.888Z,6.41
2022-10-09T06:27:17.632Z,6.41
2022-10-09T06:29:46.497Z,6.44
2022-10-09T06:32:14.032Z,6.46
2022-10-09T06:34:41.550Z,6.47
2022-10-09T06:37:09.114Z,6.47
2022-10-09T06:39:36.645Z,6.48
2022-10-09T06:42:04.435Z,6.53
2022-10-09T06:44:43.258Z,6.58
2022-10-09T06:47:12.184Z,6.67
2022-10-09T06:49:39.692Z,6.73
2022-10-09T06:52:07.193Z,6.91
2022-10-09T06:54:34.780Z,7.05
2022-10-09T06:57:02.284Z,7.16
2022-10-09T06:59:29.977Z,7.27
2022-10-09T07:01:57.735Z,7.31
2022-10-09T07:04:26.881Z,7.37
2022-10-09T07:06:54.673Z,7.45
2022-10-09T07:09:22.316Z,7.52
2022-10-09T07:11:49.916Z,7.59
2022-10-09T07:14:18.126Z,7.73
2022-10-09T07:16:48.290Z,7.87
2022-10-09T07:19:17.453Z,7.97
2022-10-09T07:21:48.901Z,8.06
2022-10-09T07:24:18.027Z,8.12
2022-10-09T07:26:47.358Z,8.18
2022-10-09T07:29:16.780Z,8.29
2022-10-09T07:31:44.813Z,8.33
2022-10-09T07:34:12.357Z,8.36
2022-10-09T07:36:39.919Z,8.46
2022-10-09T07:39:08.795Z,8.54
2022-10-09T07:41:36.660Z,8.63
2022-10-09T07:44:04.302Z,8.77
2022-10-09T07:46:33.961Z,8.88
2022-10-09T07:49:01.857Z,9.01
2022-10-09T07:51:30.192Z,9.14
2022-10-09T07:53:58.158Z,9.24
2022-10-09T07:56:29.239Z,9.41
2022-10-09T07:58:58.652Z,9.54
2022-10-09T08:01:28.486Z,9.65
2022-10-09T08:03:56.872Z,9.77
2022-10-09T08:06:24.500Z,9.92
2022-10-09T08:08:52.809Z,10.03
2022-10-09T08:11:21.615Z,10.24
2022-10-09T08:13:52.080Z,10.38
2022-10-09T08:16:21.143Z,10.54
2022-10-09T08:18:49.040Z,10.71
2022-10-09T08:21:18.151Z,10.91
2022-10-09T08:23:46.420Z,11.08
2022-10-09T08:26:14.897Z,11.26
2022-10-09T08:28:42.836Z,11.45
2022-10-09T08:31:16.984Z,11.55
2022-10-09T08:33:44.981Z,11.67
2022-10-09T08:36:15.519Z,11.84
2022-10-09T08:38:48.143Z,12.00
2022-10-09T08:41:24.287Z,12.05
2022-10-09T08:43:56.925Z,12.22
2022-10-09T08:46:30.103Z,12.44
2022-10-09T08:48:59.183Z,12.55
2022-10-09T08:51:29.445Z,12.72
2022-10-09T08:54:02.410Z,12.97
2022-10-09T08:56:31.051Z,13.15
2022-10-09T08:58:58.741Z,13.24
2022-10-09T09:01:34.402Z,13.42
2022-10-09T09:04:38.352Z,13.50
2022-10-09T09:07:13.127Z,13.64
2022-10-09T09:09:49.325Z,13.79
2022-10-09T09:12:22.705Z,14.02
2022-10-09T09:14:57.142Z,14.06
2022-10-09T09:17:34.192Z,14.15
2022-10-09T09:20:11.627Z,14.16
2022-10-09T09:22:43.286Z,14.28
2022-10-09T09:25:20.699Z,14.32
2022-10-09T09:27:48.812Z,14.40
2022-10-09T09:30:20.318Z,14.48
2022-10-09T09:32:56.014Z,14.60
2022-10-09T09:35:33.275Z,14.64
2022-10-09T09:38:00.931Z,14.74
2022-10-09T09:40:37.161Z,14.84
2022-10-09T09:43:14.339Z,14.95
2022-10-09T09:45:43.687Z,15.01
2022-10-09T09:48:17.519Z,15.21
2022-10-09T09:50:52.964Z,15.35
2022-10-09T09:53:30.673Z,15.48
2022-10-09T09:55:58.879Z,15.54
2022-10-09T09:58:34.641Z,15.63
2022-10-09T10:01:04.045Z,15.63
2022-10-09T10:03:34.558Z,15.75
2022-10-09T10:06:02.516Z,16.01
2022-10-09T10:08:32.053Z,16.16
2022-10-09T10:11:01.346Z,16.30
2022-10-09T10:13:35.086Z,16.59
2022-10-09T10:16:03.540Z,16.82
2022-10-09T10:18:39.472Z,16.95
2022-10-09T10:21:11.181Z,17.16
2022-10-09T10:23:42.737Z,17.41
2022-10-09T10:26:22.535Z,17.58
2022-10-09T10:28:55.515Z,17.89
2022-10-09T10:31:39.895Z,17.88
2022-10-09T10:34:16.754Z,18.14
2022-10-09T10:37:02.573Z,18.40
2022-10-09T10:39:37.908Z,18.57
2022-10-09T10:42:12.852Z,18.78
2022-10-09T10:44:48.180Z,18.89
2022-10-09T10:47:19.332Z,19.10
2022-10-09T10:49:48.242Z,19.26
2022-10-09T10:52:27.854Z,19.31
2022-10-09T10:55:06.754Z,19.56
2022-10-09T10:57:43.081Z,19.59
2022-10-09T11:00:12.424Z,19.65
2022-10-09T11:03:21.647Z,19.79
2022-10-09T11:05:56.028Z,20.18
2022-10-09T11:08:44.136Z,20.45
2022-10-09T11:11:18.001Z,20.49
2022-10-09T11:13:51.721Z,20.65
2022-10-09T11:16:34.027Z,20.79
2022-10-09T11:19:15.531Z,20.72
2022-10-09T11:21:58.880Z,20.83
2022-10-09T11:24:48.657Z,20.80
2022-10-09T11:27:22.856Z,21.16
2022-10-09T11:29:55.076Z,21.37
2022-10-09T11:32:29.254Z,21.51
2022-10-09T11:35:02.888Z,21.83
2022-10-09T11:37:35.968Z,21.99
2022-10-09T11:40:06.936Z,22.20
2022-10-09T11:42:35.172Z,22.41
2022-10-09T11:45:17.864Z,22.67
2022-10-09T11:47:52.071Z,22.76
2022-10-09T11:50:38.129Z,22.54
2022-10-09T11:53:11.116Z,22.88
2022-10-09T11:55:39.279Z,22.99
2022-10-09T11:58:14.983Z,23.40
2022-10-09T12:00:43.559Z,23.66
2022-10-09T12:03:25.545Z,24.04
2022-10-09T12:05:53.362Z,24.10
2022-10-09T12:08:28.253Z,24.46
2022-10-09T12:10:58.954Z,24.29
2022-10-09T12:13:41.968Z,24.70
2022-10-09T12:16:12.488Z,25.17
2022-10-09T12:18:45.165Z,25.13
2022-10-09T12:21:25.665Z,25.48
2022-10-09T12:23:55.709Z,25.91
2022-10-09T12:26:25.751Z,26.02
2022-10-09T12:28:56.201Z,26.39
2022-10-09T12:31:27.419Z,26.21
2022-10-09T12:33:59.964Z,26.52
2022-10-09T12:36:29.633Z,26.47
2022-10-09T12:38:59.009Z,26.41
2022-10-09T12:41:30.299Z,26.21
2022-10-09T12:43:59.275Z,26.68
2022-10-09T12:46:29.847Z,26.54
2022-10-09T12:48:58.956Z,26.56
2022-10-09T12:51:29.589Z,26.21
2022-10-09T12:53:58.687Z,26.57
2022-10-09T12:56:30.557Z,27.03
2022-10-09T12:58:59.512Z,27.50
2022-10-09T13:01:27.605Z,27.74
2022-10-09T13:03:57.345Z,27.95
2022-10-09T13:06:28.569Z,28.14
2022-10-09T13:08:59.910Z,27.61
2022-10-09T13:11:33.581Z,27.51
2022-10-09T13:14:01.619Z,28.01
2022-10-09T13:16:40.772Z,28.38
2022-10-09T13:19:23.841Z,28.92
2022-10-09T13:22:02.204Z,28.83
2022-10-09T13:24:31.070Z,28.41
2022-10-09T13:26:58.568Z,28.76
2022-10-09T13:29:26.131Z,28.97
2022-10-09T13:31:53.630Z,29.33
2022-10-09T13:34:23.631Z,29.32
2022-10-09T13:36:51.303Z,29.71
2022-10-09T13:39:18.879Z,30.06
2022-10-09T13:41:50.136Z,29.99
2022-10-09T13:44:17.665Z,30.35
2022-10-09T13:46:45.180Z,30.78
2022-10-09T13:49:12.696Z,30.13
2022-10-09T13:51:40.243Z,29.96
2022-10-09T13:54:07.782Z,29.63
2022-10-09T13:56:35.311Z,30.22
2022-10-09T13:59:04.657Z,31.46
2022-10-09T14:01:32.287Z,31.85
2022-10-09T14:03:59.900Z,30.67
2022-10-09T14:06:27.538Z,31.30
2022-10-09T14:08:55.273Z,31.16
2022-10-09T14:11:22.771Z,31.33
2022-10-09T14:13:50.359Z,29.89
2022-10-09T14:16:19.262Z,30.93
2022-10-09T14:18:46.867Z,32.17
2022-10-09T14:21:15.973Z,32.20
2022-10-09T14:23:44.035Z,31.22
2022-10-09T14:26:11.596Z,31.10
2022-10-09T14:28:39.493Z,31.07
2022-10-09T14:31:08.951Z,31.21
2022-10-09T14:33:37.845Z,31.57
2022-10-09T14:36:07.776Z,32.27
2022-10-09T14:38:38.016Z,32.60
2022-10-09T14:41:06.061Z,32.06
2022-10-09T14:43:33.813Z,31.56
2022-10-09T14:46:06.910Z,30.76
2022-10-09T14:48:34.682Z,31.06
2022-10-09T14:51:08.103Z,31.18
2022-10-09T14:53:35.630Z,29.97
2022-10-09T14:56:03.867Z,29.67
2022-10-09T14:58:33.371Z,29.48
2022-10-09T15:01:01.619Z,28.84
2022-10-09T15:03:30.444Z,29.01
2022-10-09T15:05:58.782Z,28.29
2022-10-09T15:08:27.669Z,28.53
2022-10-09T15:10:55.573Z,27.47
2022-10-09T15:13:23.156Z,27.21
2022-10-09T15:15:50.845Z,26.57
2022-10-09T15:18:18.387Z,25.89
2022-10-09T15:20:46.300Z,25.36
2022-10-09T15:23:14.055Z,25.27
2022-10-09T15:25:49.170Z,25.45
2022-10-09T15:28:17.460Z,24.97
2022-10-09T15:30:45.619Z,25.33
2022-10-09T15:33:13.150Z,25.40
2022-10-09T15:35:40.760Z,25.49
2022-10-09T15:38:08.359Z,25.34
2022-10-09T15:40:44.876Z,25.45
2022-10-09T15:43:12.592Z,25.91
2022-10-09T15:45:40.380Z,25.46
2022-10-09T15:48:09.122Z,25.47
2022-10-09T15:50:37.034Z,25.44
2022-10-09T15:53:10.534Z,25.67
2022-10-09T15:55:38.433Z,26.08
2022-10-09T15:58:07.697Z,26.47
2022-10-09T16:00:36.699Z,26.51
2022-10-09T16:03:04.683Z,25.93
2022-10-09T16:05:36.720Z,26.17
2022-10-09T16:08:04.357Z,25.82
2022-10-09T16:10:31.952Z,25.30
2022-10-09T16:12:59.693Z,24.73
2022-10-09T16:15:28.662Z,24.49
2022-10-09T16:17:56.172Z,24.07
2022-10-09T16:20:23.752Z,23.42
2022-10-09T16:22:52.143Z,23.01
2022-10-09T16:25:19.874Z,22.63
2022-10-09T16:27:47.431Z,22.13
2022-10-09T16:30:15.089Z,21.59
2022-10-09T16:32:43.989Z,21.32
2022-10-09T16:35:11.530Z,21.01
2022-10-09T16:37:39.121Z,20.59
2022-10-09T16:40:07.746Z,20.18
2022-10-09T16:42:35.325Z,19.88
2022-10-09T16:45:02.912Z,19.70
2022-10-09T16:47:30.788Z,19.33
2022-10-09T16:49:59.671Z,19.04
2022-10-09T16:52:27.191Z,18.64
2022-10-09T16:54:57.147Z,18.48
2022-10-09T16:57:28.081Z,18.17
2022-10-09T16:59:55.728Z,17.89
2022-10-09T17:02:23.273Z,17.67
2022-10-09T17:04:50.831Z,17.43
2022-10-09T17:07:20.590Z,17.20
2022-10-09T17:09:48.147Z,17.00
2022-10-09T17:12:15.670Z,16.76
2022-10-09T17:14:43.471Z,16.52
2022-10-09T17:17:12.157Z,16.32
2022-10-09T17:19:40.221Z,16.17
2022-10-09T17:22:07.918Z,16.05
2022-10-09T17:24:36.873Z,15.84
2022-10-09T17:27:04.852Z,15.74
2022-10-09T17:29:32.354Z,15.61
2022-10-09T17:31:59.876Z,15.50
2022-10-09T17:34:27.417Z,15.38
2022-10-09T17:36:54.925Z,15.29
2022-10-09T17:39:22.461Z,15.22
2022-10-09T17:41:51.347Z,15.08
2022-10-09T17:44:19.911Z,14.81
2022-10-09T17:46:47.412Z,14.75
2022-10-09T17:49:15.022Z,14.65
2022-10-09T17:51:42.552Z,14.60
2022-10-09T17:54:13.895Z,14.47
2022-10-09T17:56:42.178Z,14.45
2022-10-09T17:59:11.561Z,14.28
2022-10-09T18:01:39.099Z,14.19
2022-10-09T18:04:06.694Z,14.08
2022-10-09T18:06:35.921Z,14.03
2022-10-09T18:09:04.208Z,13.96
2022-10-09T18:11:31.820Z,13.92
2022-10-09T18:13:59.376Z,13.86
2022-10-09T18:16:35.806Z,13.78
2022-10-09T18:19:05.997Z,13.65
2022-10-09T18:21:34.716Z,13.58
2022-10-09T18:24:02.556Z,13.53
2022-10-09T18:26:30.087Z,13.49
2022-10-09T18:28:58.990Z,13.46
2022-10-09T18:31:28.483Z,13.38
2022-10-09T18:33:57.452Z,13.28
2022-10-09T18:36:31.162Z,13.22
2022-10-09T18:39:01.186Z,13.16
2022-10-09T18:41:28.949Z,13.08
2022-10-09T18:43:59.795Z,12.94
2022-10-09T18:46:35.065Z,12.91
2022-10-09T18:49:03.212Z,12.79
2022-10-09T18:51:32.097Z,12.74
2022-10-09T18:54:03.564Z,12.68
2022-10-09T18:56:33.038Z,12.66
2022-10-09T18:59:25.350Z,12.60
2022-10-09T19:01:54.194Z,12.56
2022-10-09T19:04:21.788Z,12.52
2022-10-09T19:06:49.644Z,12.52
2022-10-09T19:09:17.267Z,12.49
2022-10-09T19:11:44.900Z,12.42
2022-10-09T19:14:12.411Z,12.40
2022-10-09T19:16:40.399Z,12.34
2022-10-09T19:19:09.300Z,12.30
2022-10-09T19:21:39.279Z,12.25
2022-10-09T19:24:07.170Z,12.17
2022-10-09T19:26:35.236Z,12.16
2022-10-09T19:29:03.465Z,12.11
2022-10-09T19:31:31.877Z,12.01
2022-10-09T19:34:00.507Z,12.04
2022-10-09T19:36:33.005Z,12.02
2022-10-09T19:39:01.056Z,11.98
2022-10-09T19:41:28.746Z,11.96
2022-10-09T19:43:56.339Z,11.93
2022-10-09T19:46:23.927Z,11.95
2022-10-09T19:48:52.049Z,11.93
2022-10-09T19:51:22.087Z,11.93
2022-10-09T19:53:51.969Z,11.89
2022-10-09T19:56:21.515Z,11.83
2022-10-09T19:58:50.240Z,11.84
2022-10-09T20:01:20.615Z,11.83
2022-10-09T20:03:49.131Z,11.81
2022-10-09T20:06:16.812Z,11.79
2022-10-09T20:08:45.122Z,11.79
2022-10-09T20:11:14.171Z,11.79
2022-10-09T20:13:43.347Z,11.79
2022-10-09T20:16:13.243Z,11.76
2022-10-09T20:18:42.243Z,11.74
2022-10-09T20:21:10.660Z,11.82
2022-10-09T20:23:38.265Z,11.83
2022-10-09T20:26:07.165Z,11.86
2022-10-09T20:28:37.839Z,11.86
2022-10-09T20:31:07.930Z,11.87
2022-10-09T20:33:37.289Z,11.86
2022-10-09T20:36:05.336Z,11.84
2022-10-09T20:38:32.977Z,11.82
2022-10-09T20:41:07.421Z,11.83
2022-10-09T20:43:36.640Z,11.79
2022-10-09T20:46:07.203Z,11.78
2022-10-09T20:48:34.941Z,11.76
2022-10-09T20:51:02.970Z,11.68
2022-10-09T20:53:30.672Z,11.67
2022-10-09T20:56:00.806Z,11.64
2022-10-09T20:58:29.071Z,11.60
2022-10-09T21:00:58.171Z,11.58
2022-10-09T21:03:26.356Z,11.54
2022-10-09T21:05:53.979Z,11.53
2022-10-09T21:08:21.560Z,11.46
2022-10-09T21:10:50.527Z,11.42
2022-10-09T21:13:18.087Z,11.41
2022-10-09T21:15:48.120Z,11.37
2022-10-09T21:18:19.371Z,11.32
2022-10-09T21:20:48.185Z,11.27
2022-10-09T21:23:18.891Z,11.27
2022-10-09T21:25:50.783Z,11.24
2022-10-09T21:28:19.405Z,11.21
2022-10-09T21:30:47.289Z,11.20
2022-10-09T21:33:17.345Z,11.15
2022-10-09T21:35:48.192Z,11.11
2022-10-09T21:38:18.572Z,11.07
2022-10-09T21:40:47.709Z,11.05
2022-10-09T21:43:15.277Z,11.01
2022-10-09T21:45:42.953Z,10.94
2022-10-09T21:48:15.292Z,10.87
2022-10-09T21:50:44.306Z,10.81
2022-10-09T21:53:12.419Z,10.79
2022-10-09T21:55:40.476Z,10.78
2022-10-09T21:58:08.676Z,10.74
2022-10-09T22:00:36.887Z,10.71
2022-10-09T22:03:05.065Z,10.69
2022-10-09T22:05:32.703Z,10.63
2022-10-09T22:08:01.710Z,10.60
2022-10-09T22:10:29.288Z,10.61
2022-10-09T22:12:56.821Z,10.56
2022-10-09T22:15:24.399Z,10.51
2022-10-09T22:17:51.896Z,10.45
2022-10-09T22:20:19.612Z,10.42
2022-10-09T22:22:47.460Z,10.40
2022-10-09T22:25:16.646Z,10.38
2022-10-09T22:27:44.243Z,10.39
2022-10-09T22:30:12.992Z,10.35
2022-10-09T22:32:40.537Z,10.32
2022-10-09T22:35:08.693Z,10.28
2022-10-09T22:37:36.195Z,10.29
2022-10-09T22:40:03.939Z,10.27
2022-10-09T22:42:32.847Z,10.24
2022-10-09T22:45:00.421Z,10.18
2022-10-09T22:47:28.183Z,10.17
2022-10-09T22:49:57.242Z,10.16
2022-10-09T22:52:24.999Z,10.13
2022-10-09T22:54:52.569Z,10.13
2022-10-09T22:57:20.127Z,10.12
2022-10-09T22:59:49.230Z,10.09
2022-10-09T23:02:16.776Z,10.08
2022-10-09T23:04:44.368Z,10.03
2022-10-09T23:07:11.929Z,9.99
2022-10-09T23:09:39.508Z,10.00
2022-10-09T23:12:07.024Z,9.97
2022-10-09T23:14:34.548Z,9.95
2022-10-09T23:17:03.404Z,9.87
2022-10-09T23:19:30.932Z,9.78
2022-10-09T23:21:58.462Z,9.74
2022-10-09T23:24:25.976Z,9.73
2022-10-09T23:26:53.504Z,9.72
2022-10-09T23:29:21.608Z,9.70
2022-10-09T23:31:52.515Z,9.71
2022-10-09T23:34:21.365Z,9.66
2022-10-09T23:36:48.899Z,9.64
2022-10-09T23:39:16.809Z,9.61
2022-10-09T23:41:44.329Z,9.60
2022-10-09T23:44:11.834Z,9.57
2022-10-09T23:46:39.788Z,9.55
2022-10-09T23:49:07.314Z,9.54
2022-10-09T23:51:37.836Z,9.51
2022-10-09T23:54:05.513Z,9.49
2022-10-09T23:56:34.469Z,9.49
2022-10-09T23:59:03.472Z,9.50
